Time;durP1;ratioP1;P1;durP2;ratioP2;P2;SDS_P1;SDS_P2;PMS_P1;PMS_P2;Temp;Humidity;BMP_temperature;BMP_pressure;BME280_temperature;BME280_humidity;BME280_pressure;Samples;Min_cycle;Max_cycle;Signal;HPM_P1;HPM_P2
2022/04/14 00:01:46;;;;;;;5.15;4.45;;;12.50;66.70;;;;;;604590;238;26832;-65
2022/04/14 00:04:13;;;;;;;5.07;4.57;;;12.50;68.10;;;;;;604583;237;26583;-64
2022/04/14 00:06:41;;;;;;;5.28;4.78;;;12.40;67.10;;;;;;604651;237;26841;-64
2022/04/14 00:09:08;;;;;;;4.65;4.25;;;12.40;67.70;;;;;;604624;237;26590;-64
2022/04/14 00:11:38;;;;;;;6.25;4.40;;;12.30;70.20;;;;;;604667;238;26590;-64
2022/04/14 00:14:04;;;;;;;4.78;4.30;;;12.30;69.80;;;;;;603825;235;26580;-64
2022/04/14 00:16:32;;;;;;;7.03;4.90;;;12.30;68.40;;;;;;602573;235;26687;-65
2022/04/14 00:19:00;;;;;;;12.05;5.47;;;12.30;68.80;;;;;;604174;232;26671;-67
2022/04/14 00:21:27;;;;;;;5.75;4.75;;;12.30;68.80;;;;;;610235;234;26546;-65
2022/04/14 00:23:55;;;;;;;7.93;4.85;;;12.30;68.50;;;;;;602599;235;26589;-64
2022/04/14 00:26:22;;;;;;;6.75;4.90;;;12.20;70.40;;;;;;602347;239;26872;-65
2022/04/14 00:28:49;;;;;;;5.65;4.60;;;12.20;69.10;;;;;;604458;232;26656;-64
2022/04/14 00:31:16;;;;;;;4.87;4.35;;;12.20;69.50;;;;;;609102;236;26964;-65
2022/04/14 00:33:43;;;;;;;4.72;4.20;;;12.10;70.00;;;;;;605487;235;26606;-64
2022/04/14 00:36:11;;;;;;;5.60;4.35;;;12.00;70.00;;;;;;607410;234;27094;-64
2022/04/14 00:38:39;;;;;;;4.53;4.12;;;12.00;69.80;;;;;;603948;236;26867;-64
2022/04/14 00:41:06;;;;;;;4.80;4.20;;;12.00;70.30;;;;;;602279;238;26603;-65
2022/04/14 00:43:33;;;;;;;4.85;4.40;;;12.00;70.10;;;;;;604111;237;27278;-65
2022/04/14 00:46:01;;;;;;;5.62;4.43;;;11.90;71.60;;;;;;601734;236;26573;-64
2022/04/14 00:48:29;;;;;;;4.62;4.22;;;11.90;71.50;;;;;;603695;237;26611;-65
2022/04/14 00:50:57;;;;;;;4.78;4.37;;;11.90;71.40;;;;;;609221;236;26672;-64
2022/04/14 00:53:24;;;;;;;4.57;4.18;;;11.90;72.70;;;;;;610710;235;26809;-64
2022/04/14 00:55:51;;;;;;;4.43;4.03;;;11.90;73.00;;;;;;601496;237;26657;-64
2022/04/14 00:58:18;;;;;;;4.53;4.12;;;11.80;72.60;;;;;;601540;237;26803;-64
2022/04/14 01:00:46;;;;;;;5.82;5.22;;;11.80;72.80;;;;;;607689;236;26615;-64
2022/04/14 01:03:14;;;;;;;7.47;4.90;;;11.70;73.20;;;;;;601983;235;26675;-64
2022/04/14 01:05:42;;;;;;;5.80;5.20;;;11.70;71.80;;;;;;604776;234;26666;-64
2022/04/14 01:08:09;;;;;;;5.70;4.90;;;11.70;71.80;;;;;;606969;234;26625;-64
2022/04/14 01:10:37;;;;;;;5.10;4.60;;;11.80;73.30;;;;;;607209;236;26584;-64
2022/04/14 01:13:05;;;;;;;5.95;5.15;;;11.80;71.80;;;;;;602693;235;26889;-64
2022/04/14 01:15:32;;;;;;;6.30;4.62;;;11.80;72.20;;;;;;605807;236;26831;-64
2022/04/14 01:17:59;;;;;;;4.47;4.07;;;11.80;73.40;;;;;;606336;235;26573;-65
2022/04/14 01:20:26;;;;;;;5.40;4.90;;;11.80;74.30;;;;;;601551;233;26973;-64
2022/04/14 01:22:56;;;;;;;5.47;4.97;;;11.80;74.40;;;;;;603955;238;26589;-64
2022/04/14 01:25:22;;;;;;;5.68;5.10;;;11.80;73.30;;;;;;604012;237;26592;-64
2022/04/14 01:27:50;;;;;;;5.00;4.50;;;11.80;72.20;;;;;;601463;238;26693;-64
2022/04/14 01:30:17;;;;;;;4.60;4.20;;;11.80;72.10;;;;;;602299;237;26636;-64
2022/04/14 01:32:45;;;;;;;6.03;5.18;;;11.80;73.00;;;;;;608929;235;26581;-64
2022/04/14 01:35:13;;;;;;;5.87;5.22;;;11.80;72.90;;;;;;602956;235;26604;-64
2022/04/14 01:37:40;;;;;;;5.20;4.62;;;11.70;72.40;;;;;;604836;235;26588;-64
2022/04/14 01:40:08;;;;;;;5.37;4.87;;;11.70;72.60;;;;;;610481;235;26837;-63
2022/04/14 01:42:35;;;;;;;7.20;5.28;;;11.70;73.10;;;;;;606667;236;26609;-64
2022/04/14 01:45:03;;;;;;;5.30;4.50;;;11.70;72.90;;;;;;602597;237;26855;-64
2022/04/14 01:47:30;;;;;;;5.20;4.55;;;11.70;72.20;;;;;;604389;234;27310;-64
2022/04/14 01:49:57;;;;;;;5.70;4.85;;;11.60;72.60;;;;;;605241;236;26599;-64
2022/04/14 01:52:24;;;;;;;5.32;4.82;;;11.60;72.70;;;;;;611630;235;26841;-64
2022/04/14 01:54:52;;;;;;;5.57;5.07;;;11.50;72.70;;;;;;606473;234;26590;-64
2022/04/14 01:57:19;;;;;;;5.20;4.70;;;11.50;73.20;;;;;;608738;236;26653;-64
2022/04/14 01:59:47;;;;;;;6.45;5.07;;;11.50;75.50;;;;;;604568;236;26588;-64
2022/04/14 02:02:15;;;;;;;5.93;5.25;;;11.50;75.40;;;;;;605757;236;26588;-64
2022/04/14 02:04:43;;;;;;;5.55;4.93;;;11.40;75.00;;;;;;603988;238;26600;-64
2022/04/14 02:07:11;;;;;;;5.05;4.37;;;11.40;75.20;;;;;;602041;237;26648;-64
2022/04/14 02:09:39;;;;;;;5.05;4.62;;;11.40;75.30;;;;;;603703;237;26601;-63
2022/04/14 02:12:06;;;;;;;5.53;5.00;;;11.40;75.20;;;;;;601545;237;26957;-63
2022/04/14 02:14:34;;;;;;;5.15;4.75;;;11.30;75.90;;;;;;601508;239;26618;-63
2022/04/14 02:17:02;;;;;;;4.75;4.35;;;11.30;76.80;;;;;;608390;236;26654;-63
2022/04/14 02:19:30;;;;;;;4.90;4.50;;;11.30;77.00;;;;;;602149;238;26684;-63
2022/04/14 02:21:58;;;;;;;5.50;5.00;;;11.30;76.90;;;;;;606698;236;26586;-63
2022/04/14 02:24:25;;;;;;;5.07;4.68;;;11.30;76.20;;;;;;606646;235;26683;-63
2022/04/14 02:26:53;;;;;;;6.20;4.72;;;11.30;75.80;;;;;;602106;237;26625;-63
2022/04/14 02:29:21;;;;;;;5.18;4.68;;;11.20;75.50;;;;;;601423;238;26627;-64
2022/04/14 02:31:49;;;;;;;4.70;4.18;;;11.20;76.10;;;;;;604442;236;26639;-64
2022/04/14 02:34:17;;;;;;;4.85;4.35;;;11.20;75.80;;;;;;605289;235;26602;-65
2022/04/14 02:36:44;;;;;;;6.12;5.20;;;11.20;75.80;;;;;;603707;234;26629;-65
2022/04/14 02:39:12;;;;;;;4.28;3.97;;;11.20;75.80;;;;;;602524;236;26645;-64
2022/04/14 02:41:38;;;;;;;5.07;4.57;;;11.30;76.50;;;;;;608088;233;26839;-65
2022/04/14 02:44:06;;;;;;;4.45;4.05;;;11.40;76.00;;;;;;604258;237;26656;-65
2022/04/14 02:46:33;;;;;;;4.75;4.20;;;11.40;75.80;;;;;;603518;236;26888;-65
2022/04/14 02:49:00;;;;;;;4.85;4.28;;;11.60;75.20;;;;;;609300;235;26599;-65
2022/04/14 02:51:27;;;;;;;5.05;4.40;;;11.70;75.60;;;;;;605281;237;26858;-65
2022/04/14 02:53:55;;;;;;;4.97;4.57;;;11.70;76.40;;;;;;603881;237;26864;-65
2022/04/14 02:56:23;;;;;;;4.85;4.45;;;11.80;75.10;;;;;;603850;237;26653;-65
2022/04/14 02:58:51;;;;;;;5.55;5.05;;;11.90;75.30;;;;;;605066;238;26629;-68
2022/04/14 03:01:18;;;;;;;4.55;4.15;;;11.90;75.40;;;;;;603084;236;26605;-69
2022/04/14 03:03:46;;;;;;;5.70;4.93;;;11.90;75.20;;;;;;610991;235;26641;-69
2022/04/14 03:06:13;;;;;;;4.93;4.53;;;11.90;75.60;;;;;;611374;234;26894;-67
2022/04/14 03:08:41;;;;;;;4.90;4.40;;;11.90;76.40;;;;;;604210;236;26605;-67
2022/04/14 03:11:08;;;;;;;5.12;4.62;;;11.90;76.20;;;;;;604928;236;26590;-67
2022/04/14 03:13:35;;;;;;;5.50;4.80;;;11.80;76.30;;;;;;608014;236;26838;-68
2022/04/14 03:16:03;;;;;;;5.40;4.90;;;11.70;76.40;;;;;;603125;234;26606;-68
2022/04/14 03:18:30;;;;;;;4.90;4.50;;;11.70;76.70;;;;;;602702;238;26588;-68
2022/04/14 03:20:57;;;;;;;5.87;5.30;;;11.70;77.20;;;;;;601544;237;26666;-68
2022/04/14 03:23:25;;;;;;;5.22;4.75;;;11.70;77.90;;;;;;602108;238;26643;-68
2022/04/14 03:25:53;;;;;;;5.97;5.10;;;11.50;77.00;;;;;;606504;236;26855;-69
2022/04/14 03:28:21;;;;;;;6.03;5.43;;;11.40;78.10;;;;;;605039;235;26603;-68
2022/04/14 03:30:49;;;;;;;5.47;4.97;;;11.40;78.00;;;;;;603805;236;26594;-68
2022/04/14 03:33:16;;;;;;;5.07;4.65;;;11.40;78.20;;;;;;601654;238;26640;-68
2022/04/14 03:35:43;;;;;;;6.53;5.28;;;11.30;79.70;;;;;;604073;233;26877;-68
2022/04/14 03:38:10;;;;;;;6.40;5.20;;;11.30;80.30;;;;;;605709;236;26599;-69
2022/04/14 03:40:37;;;;;;;6.35;5.43;;;11.30;81.00;;;;;;603622;238;27194;-68
2022/04/14 03:43:05;;;;;;;6.22;5.62;;;11.30;81.90;;;;;;608784;236;26577;-68
2022/04/14 03:45:32;;;;;;;6.15;5.35;;;11.20;82.90;;;;;;602197;238;26855;-68
2022/04/14 03:48:00;;;;;;;6.90;5.32;;;11.20;84.90;;;;;;604566;238;26620;-68
2022/04/14 03:50:28;;;;;;;8.00;5.40;;;11.20;85.70;;;;;;604616;238;26583;-68
2022/04/14 03:52:56;;;;;;;5.65;5.03;;;11.20;86.50;;;;;;605065;235;26586;-68
2022/04/14 03:55:24;;;;;;;5.28;4.78;;;11.20;88.20;;;;;;611701;234;26584;-68
2022/04/14 03:57:51;;;;;;;6.20;5.55;;;11.20;87.70;;;;;;607799;232;26612;-68
2022/04/14 04:00:18;;;;;;;5.57;4.90;;;11.20;88.80;;;;;;607105;235;26603;-68
2022/04/14 04:02:46;;;;;;;5.57;5.07;;;11.10;89.00;;;;;;610594;235;26845;-69
2022/04/14 04:05:13;;;;;;;7.90;4.95;;;11.20;89.70;;;;;;602933;235;26623;-68
2022/04/14 04:07:40;;;;;;;5.85;4.93;;;11.20;90.10;;;;;;604275;236;26877;-68
2022/04/14 04:10:08;;;;;;;5.50;4.95;;;11.20;90.20;;;;;;603562;238;26558;-68
2022/04/14 04:12:36;;;;;;;7.32;4.68;;;11.10;90.40;;;;;;608414;236;26630;-68
2022/04/14 04:15:04;;;;;;;6.50;5.07;;;11.10;90.70;;;;;;610073;236;26620;-68
2022/04/14 04:17:31;;;;;;;5.07;4.57;;;11.20;90.80;;;;;;608943;236;26651;-68
2022/04/14 04:19:58;;;;;;;5.35;4.85;;;11.10;90.80;;;;;;603526;238;27241;-68
2022/04/14 04:22:26;;;;;;;5.40;4.90;;;11.10;91.00;;;;;;606889;236;26601;-68
2022/04/14 04:24:57;;;;;;;7.35;5.12;;;11.10;91.10;;;;;;603412;235;26616;-68
2022/04/14 04:27:22;;;;;;;7.57;4.97;;;11.10;91.20;;;;;;609947;236;26671;-68
2022/04/14 04:29:51;;;;;;;5.93;4.35;;;11.10;91.50;;;;;;608048;236;26636;-68
2022/04/14 04:32:19;;;;;;;5.00;4.50;;;11.10;91.60;;;;;;602884;237;26643;-68
2022/04/14 04:34:47;;;;;;;4.90;4.50;;;11.10;91.70;;;;;;607720;236;26640;-68
2022/04/14 04:37:15;;;;;;;5.07;4.55;;;11.10;91.70;;;;;;602273;235;26666;-68
2022/04/14 04:39:42;;;;;;;5.22;4.72;;;11.10;92.00;;;;;;603598;238;26581;-68
2022/04/14 04:42:10;;;;;;;4.80;4.40;;;11.20;91.80;;;;;;602998;238;26642;-68
2022/04/14 04:44:37;;;;;;;4.95;4.47;;;11.30;91.90;;;;;;602408;237;26635;-68
2022/04/14 04:47:05;;;;;;;5.03;4.53;;;11.20;91.80;;;;;;608880;236;26585;-68
2022/04/14 04:49:32;;;;;;;5.00;4.47;;;11.30;91.80;;;;;;604957;237;26812;-68
2022/04/14 04:52:00;;;;;;;6.60;4.55;;;11.30;91.80;;;;;;604717;238;26582;-68
2022/04/14 04:54:27;;;;;;;5.68;4.10;;;11.50;91.90;;;;;;607767;236;26899;-68
2022/04/14 04:56:55;;;;;;;3.90;3.50;;;11.50;91.90;;;;;;609867;236;26849;-68
2022/04/14 04:59:22;;;;;;;4.10;3.70;;;11.50;91.70;;;;;;602058;235;26636;-68
2022/04/14 05:01:49;;;;;;;4.80;3.97;;;11.50;91.90;;;;;;604496;237;26847;-69
2022/04/14 05:04:16;;;;;;;5.00;3.87;;;11.60;92.30;;;;;;603174;235;26590;-65
2022/04/14 05:06:43;;;;;;;4.62;4.22;;;11.70;91.80;;;;;;603020;236;26661;-65
2022/04/14 05:09:11;;;;;;;4.35;3.95;;;11.80;91.60;;;;;;602553;237;26560;-65
2022/04/14 05:11:39;;;;;;;4.43;4.00;;;11.80;91.60;;;;;;602412;237;26578;-65
2022/04/14 05:14:08;;;;;;;4.10;3.45;;;11.90;91.90;;;;;;602294;238;26630;-65
2022/04/14 05:16:34;;;;;;;3.45;3.15;;;11.90;91.90;;;;;;602037;239;26586;-65
2022/04/14 05:19:02;;;;;;;4.75;4.15;;;11.90;91.60;;;;;;602095;237;26581;-65
2022/04/14 05:21:29;;;;;;;5.62;4.00;;;12.00;91.70;;;;;;602140;237;26791;-65
2022/04/14 05:23:56;;;;;;;4.45;3.72;;;12.00;91.30;;;;;;601876;239;26590;-65
2022/04/14 05:26:23;;;;;;;3.75;3.40;;;12.00;91.40;;;;;;601789;239;27239;-65
2022/04/14 05:28:50;;;;;;;4.53;4.18;;;12.00;91.30;;;;;;601774;233;26585;-65
2022/04/14 05:31:18;;;;;;;3.45;3.15;;;12.00;91.30;;;;;;601823;239;26892;-65
2022/04/14 05:33:45;;;;;;;4.47;4.00;;;12.10;91.30;;;;;;601804;237;26598;-65
2022/04/14 05:36:12;;;;;;;3.90;3.60;;;12.10;91.40;;;;;;601786;239;27266;-65
2022/04/14 05:38:39;;;;;;;4.60;4.20;;;12.20;91.30;;;;;;601835;239;26556;-64
2022/04/14 05:41:08;;;;;;;4.03;3.70;;;12.30;91.00;;;;;;601714;239;26591;-65
2022/04/14 05:43:34;;;;;;;4.20;3.80;;;12.40;91.20;;;;;;601484;239;26598;-65
2022/04/14 05:46:03;;;;;;;3.55;3.30;;;12.50;91.10;;;;;;601499;232;26661;-65
2022/04/14 05:48:30;;;;;;;4.68;3.67;;;12.50;91.20;;;;;;601490;235;26625;-65
2022/04/14 05:50:57;;;;;;;4.22;3.67;;;12.50;91.20;;;;;;601547;239;26642;-65
2022/04/14 05:53:26;;;;;;;4.03;3.62;;;12.60;91.20;;;;;;601537;239;26621;-65
2022/04/14 05:55:53;;;;;;;4.00;3.30;;;12.60;90.90;;;;;;601403;237;26663;-65
2022/04/14 05:58:20;;;;;;;3.78;3.47;;;12.70;90.90;;;;;;601435;237;26645;-65
2022/04/14 06:00:47;;;;;;;4.15;3.80;;;12.70;90.80;;;;;;601436;239;26661;-65
2022/04/14 06:03:14;;;;;;;4.30;3.90;;;12.80;91.20;;;;;;601418;237;26829;-65
2022/04/14 06:05:41;;;;;;;3.90;3.60;;;12.80;90.80;;;;;;601276;239;26669;-65
2022/04/14 06:08:09;;;;;;;3.97;3.53;;;12.80;90.90;;;;;;601445;239;26878;-65
2022/04/14 06:10:36;;;;;;;4.68;3.50;;;12.90;90.80;;;;;;601412;239;26641;-65
2022/04/14 06:13:03;;;;;;;4.75;3.50;;;12.90;90.80;;;;;;601552;239;26874;-65
2022/04/14 06:15:32;;;;;;;4.00;3.70;;;12.90;90.60;;;;;;601463;239;26655;-65
2022/04/14 06:17:59;;;;;;;3.75;3.30;;;12.90;90.60;;;;;;603179;232;26659;-65
2022/04/14 06:20:27;;;;;;;4.05;3.42;;;12.90;90.80;;;;;;602679;237;26688;-65
2022/04/14 06:22:56;;;;;;;3.65;3.35;;;12.90;90.90;;;;;;602365;239;26581;-65
2022/04/14 06:25:22;;;;;;;4.35;3.25;;;12.80;90.90;;;;;;602265;237;26662;-65
2022/04/14 06:27:50;;;;;;;3.67;3.40;;;12.90;90.80;;;;;;602042;232;26859;-65
2022/04/14 06:30:18;;;;;;;3.60;3.30;;;12.90;90.90;;;;;;602007;239;26580;-65
2022/04/14 06:32:50;;;;;;;6.22;4.00;;;12.90;90.90;;;;;;602117;239;26865;-65
2022/04/14 06:35:18;;;;;;;6.10;3.42;;;13.00;90.90;;;;;;601630;239;26657;-66
2022/04/14 06:37:46;;;;;;;3.60;3.30;;;13.00;90.90;;;;;;601638;239;26578;-66
2022/04/14 06:40:13;;;;;;;4.18;3.55;;;13.10;91.00;;;;;;601842;239;26568;-66
2022/04/14 06:42:41;;;;;;;4.05;3.42;;;13.10;91.00;;;;;;601802;239;26574;-66
2022/04/14 06:45:08;;;;;;;3.80;3.50;;;13.20;90.90;;;;;;601813;239;26582;-64
2022/04/14 06:47:35;;;;;;;9.30;3.75;;;13.40;90.60;;;;;;604901;236;26611;-66
2022/04/14 06:50:03;;;;;;;5.15;3.65;;;13.40;90.50;;;;;;610183;235;26620;-65
2022/04/14 06:52:30;;;;;;;3.90;3.10;;;13.40;90.50;;;;;;609919;236;26638;-65
2022/04/14 06:54:58;;;;;;;4.22;3.78;;;13.50;90.50;;;;;;609781;236;26585;-66
2022/04/14 06:57:26;;;;;;;3.92;3.53;;;13.60;90.80;;;;;;609877;235;26606;-65
2022/04/14 06:59:53;;;;;;;3.30;3.10;;;13.50;90.40;;;;;;609912;235;26613;-65
2022/04/14 07:02:21;;;;;;;6.37;3.65;;;13.70;90.30;;;;;;609915;236;26613;-66
2022/04/14 07:04:48;;;;;;;3.90;3.50;;;13.70;90.30;;;;;;606065;236;26635;-66
2022/04/14 07:07:16;;;;;;;5.05;3.70;;;14.00;90.00;;;;;;604588;236;26638;-66
2022/04/14 07:09:44;;;;;;;4.45;3.40;;;14.10;90.00;;;;;;604234;236;26637;-66
2022/04/14 07:12:11;;;;;;;5.15;3.70;;;14.10;90.00;;;;;;601487;239;26644;-66
2022/04/14 07:14:39;;;;;;;4.82;3.58;;;14.30;89.50;;;;;;601551;239;26648;-66
2022/04/14 07:17:06;;;;;;;4.12;3.45;;;14.40;89.00;;;;;;601469;237;26885;-66
2022/04/14 07:19:33;;;;;;;3.58;3.28;;;14.30;89.20;;;;;;601545;237;26634;-66
2022/04/14 07:22:02;;;;;;;3.67;3.28;;;14.60;88.70;;;;;;601572;236;26876;-68
2022/04/14 07:24:28;;;;;;;5.37;3.20;;;14.60;88.70;;;;;;601501;237;26866;-66
2022/04/14 07:26:55;;;;;;;5.62;3.80;;;14.70;88.30;;;;;;601504;237;26637;-66
2022/04/14 07:29:22;;;;;;;8.15;3.50;;;14.80;88.40;;;;;;603058;237;26853;-66
2022/04/14 07:31:52;;;;;;;3.60;3.30;;;14.70;88.30;;;;;;602617;236;26600;-66
2022/04/14 07:34:18;;;;;;;5.10;3.80;;;14.60;88.40;;;;;;602315;238;26622;-66
2022/04/14 07:36:46;;;;;;;4.62;3.25;;;14.70;88.60;;;;;;602303;237;26679;-67
2022/04/14 07:39:14;;;;;;;5.75;3.17;;;14.80;88.50;;;;;;602100;239;26585;-66
2022/04/14 07:41:42;;;;;;;5.53;3.42;;;15.10;87.90;;;;;;604438;236;26625;-66
2022/04/14 07:44:09;;;;;;;3.95;3.20;;;15.10;87.90;;;;;;606665;235;26638;-67
2022/04/14 07:46:38;;;;;;;3.78;3.10;;;15.30;87.80;;;;;;605927;235;26611;-66
2022/04/14 07:49:04;;;;;;;4.37;3.05;;;15.50;87.00;;;;;;606391;234;26834;-66
2022/04/14 07:51:31;;;;;;;8.98;3.58;;;15.80;86.20;;;;;;606047;235;26577;-67
2022/04/14 07:53:59;;;;;;;4.25;3.20;;;15.90;85.50;;;;;;606285;235;26598;-66
2022/04/14 07:56:26;;;;;;;5.30;3.15;;;16.00;85.50;;;;;;603523;234;26865;-66
2022/04/14 07:58:53;;;;;;;5.47;3.40;;;16.20;85.00;;;;;;605011;236;26583;-66
2022/04/14 08:01:21;;;;;;;3.47;3.15;;;16.20;84.90;;;;;;606345;235;26602;-67
2022/04/14 08:03:48;;;;;;;5.80;3.62;;;16.30;85.00;;;;;;605273;235;26590;-69
2022/04/14 08:06:16;;;;;;;5.60;3.12;;;16.30;85.20;;;;;;604337;236;26678;-70
2022/04/14 08:08:44;;;;;;;4.22;3.83;;;16.30;85.40;;;;;;604552;235;26632;-72
2022/04/14 08:11:12;;;;;;;4.85;2.95;;;16.30;85.40;;;;;;607356;235;26650;-72
2022/04/14 08:13:41;;;;;;;4.32;3.33;;;16.30;86.10;;;;;;604267;234;26852;-72
2022/04/14 08:16:06;;;;;;;10.15;3.22;;;16.20;86.40;;;;;;602987;235;26681;-71
2022/04/14 08:18:34;;;;;;;13.68;2.80;;;16.30;86.50;;;;;;606843;235;26898;-72
2022/04/14 08:21:01;;;;;;;3.25;2.90;;;16.20;86.80;;;;;;606783;231;26598;-72
2022/04/14 08:23:28;;;;;;;4.45;2.85;;;16.30;86.40;;;;;;602253;234;26848;-72
2022/04/14 08:25:55;;;;;;;4.75;3.17;;;16.50;86.50;;;;;;603657;234;26692;-72
2022/04/14 08:28:23;;;;;;;3.33;3.03;;;16.60;86.60;;;;;;602355;238;26655;-71
2022/04/14 08:30:52;;;;;;;3.12;2.80;;;16.60;86.90;;;;;;603381;238;26883;-71
2022/04/14 08:33:20;;;;;;;2.75;2.40;;;16.50;87.10;;;;;;605183;236;26598;-72
2022/04/14 08:35:45;;;;;;;5.78;2.72;;;16.40;87.20;;;;;;604696;235;26800;-71
2022/04/14 08:38:13;;;;;;;5.28;3.00;;;16.70;86.80;;;;;;608372;235;26586;-72
2022/04/14 08:40:41;;;;;;;9.23;3.03;;;16.80;86.50;;;;;;604340;237;26666;-72
2022/04/14 08:43:09;;;;;;;5.85;2.75;;;16.70;86.80;;;;;;603824;236;26628;-72
2022/04/14 08:45:38;;;;;;;3.05;2.50;;;16.60;87.30;;;;;;604766;237;26619;-72
2022/04/14 08:48:05;;;;;;;6.03;2.95;;;16.60;87.30;;;;;;601600;239;26855;-71
2022/04/14 08:50:33;;;;;;;4.87;2.40;;;16.80;86.80;;;;;;605293;236;26778;-72
2022/04/14 08:53:01;;;;;;;2.97;2.70;;;17.40;86.10;;;;;;607458;235;26546;-72
2022/04/14 08:55:29;;;;;;;3.65;2.65;;;17.60;85.40;;;;;;608897;236;26599;-72
2022/04/14 08:57:57;;;;;;;3.00;2.60;;;17.60;85.00;;;;;;605257;235;26597;-71
2022/04/14 09:00:25;;;;;;;4.75;2.60;;;17.80;84.50;;;;;;603884;238;26594;-71
2022/04/14 09:02:53;;;;;;;2.40;2.20;;;17.70;84.40;;;;;;603285;237;26598;-72
2022/04/14 09:05:19;;;;;;;2.53;2.33;;;17.70;85.10;;;;;;602669;237;26660;-72
2022/04/14 09:07:48;;;;;;;6.68;2.40;;;18.00;84.60;;;;;;604278;237;26852;-72
2022/04/14 09:10:15;;;;;;;3.00;2.20;;;18.20;83.10;;;;;;603027;232;26585;-71
2022/04/14 09:12:43;;;;;;;2.87;2.40;;;18.20;82.50;;;;;;603683;235;26587;-72
2022/04/14 09:15:11;;;;;;;2.20;2.00;;;18.10;83.10;;;;;;609651;235;26627;-71
2022/04/14 09:17:39;;;;;;;3.00;2.33;;;18.30;82.80;;;;;;605986;234;26613;-71
2022/04/14 09:20:18;;;;;;;2.10;1.92;;;18.40;82.60;;;;;;605475;236;26584;-71
2022/04/14 09:22:45;;;;;;;4.03;2.12;;;18.30;82.00;;;;;;606048;236;26915;-72
2022/04/14 09:25:13;;;;;;;2.70;2.50;;;18.60;81.80;;;;;;606820;235;26611;-72
2022/04/14 09:27:41;;;;;;;3.30;2.03;;;18.70;81.70;;;;;;611404;235;26897;-72
2022/04/14 09:30:09;;;;;;;2.95;2.50;;;19.10;81.00;;;;;;603099;236;26644;-71
2022/04/14 09:32:38;;;;;;;3.47;2.10;;;18.80;81.30;;;;;;606607;235;26616;-72
2022/04/14 09:35:07;;;;;;;2.30;2.03;;;18.50;81.70;;;;;;606387;236;26598;-71
2022/04/14 09:37:34;;;;;;;2.37;2.17;;;18.40;82.10;;;;;;605719;235;26685;-72
2022/04/14 09:40:01;;;;;;;2.65;2.03;;;18.60;82.10;;;;;;601590;236;26830;-72
2022/04/14 09:42:30;;;;;;;2.67;2.20;;;18.50;82.40;;;;;;602418;238;26613;-71
2022/04/14 09:45:18;;;;;;;2.55;2.35;;;18.50;82.30;;;;;;608104;235;26634;-71
2022/04/14 09:47:45;;;;;;;2.60;2.10;;;18.40;82.40;;;;;;602877;235;26674;-72
2022/04/14 09:50:25;;;;;;;1.75;1.65;;;17.80;84.00;;;;;;602317;238;26646;-72
2022/04/14 09:52:57;;;;;;;1.90;1.80;;;18.00;84.30;;;;;;606284;237;26582;-71
2022/04/14 09:55:24;;;;;;;2.00;1.80;;;17.80;84.30;;;;;;609241;235;26609;-71
2022/04/14 09:58:03;;;;;;;1.87;1.73;;;17.50;85.40;;;;;;603112;234;27133;-72
2022/04/14 10:00:41;;;;;;;2.58;2.10;;;17.50;86.00;;;;;;605160;236;26635;-71
2022/04/14 10:03:11;;;;;;;2.30;1.73;;;17.80;85.20;;;;;;604233;235;26661;-71
2022/04/14 10:05:38;;;;;;;3.33;1.60;;;18.10;84.60;;;;;;604476;234;26857;-72
2022/04/14 10:08:08;;;;;;;1.50;1.40;;;18.30;83.90;;;;;;609986;235;26643;-72
2022/04/14 10:10:36;;;;;;;2.12;1.92;;;18.00;84.40;;;;;;604770;235;26585;-72
2022/04/14 10:13:05;;;;;;;1.90;1.80;;;17.80;84.90;;;;;;607240;235;26582;-72
2022/04/14 10:15:34;;;;;;;1.75;1.55;;;18.00;84.70;;;;;;608923;235;26646;-72
2022/04/14 10:18:04;;;;;;;2.53;1.98;;;18.00;84.70;;;;;;603897;236;27113;-72
2022/04/14 10:20:31;;;;;;;2.25;1.85;;;17.80;85.10;;;;;;604086;235;26589;-72
2022/04/14 10:23:00;;;;;;;1.95;1.77;;;17.60;86.10;;;;;;611200;235;26596;-70
2022/04/14 10:25:27;;;;;;;2.08;1.70;;;17.60;86.10;;;;;;604548;236;26819;-68
2022/04/14 10:27:54;;;;;;;3.00;2.20;;;17.50;86.80;;;;;;609412;235;26635;-71
2022/04/14 10:30:23;;;;;;;1.85;1.75;;;17.90;85.70;;;;;;612654;235;26615;-71
2022/04/14 10:32:49;;;;;;;5.25;1.90;;;18.10;85.60;;;;;;605869;235;26613;-73
2022/04/14 10:35:16;;;;;;;4.53;2.28;;;18.20;85.20;;;;;;601893;237;26905;-72
2022/04/14 10:37:45;;;;;;;5.07;1.60;;;18.30;85.30;;;;;;602937;238;26859;-72
2022/04/14 10:40:12;;;;;;;1.87;1.77;;;18.50;84.80;;;;;;603046;237;26906;-72
2022/04/14 10:42:40;;;;;;;2.40;1.83;;;18.30;85.20;;;;;;603781;237;26590;-72
2022/04/14 10:45:17;;;;;;;1.77;1.62;;;17.80;86.50;;;;;;608461;236;27160;-72
2022/04/14 10:48:00;;;;;;;2.95;1.75;;;17.80;87.10;;;;;;606417;236;26616;-70
2022/04/14 10:50:31;;;;;;;2.85;1.48;;;17.70;86.90;;;;;;604487;236;26560;-69
2022/04/14 10:53:06;;;;;;;2.37;1.80;;;17.30;88.40;;;;;;608497;236;26600;-68
2022/04/14 10:55:37;;;;;;;52.30;8.68;;;17.30;88.40;;;;;;606685;235;26595;-69
2022/04/14 10:58:04;;;;;;;87.20;18.15;;;17.30;88.80;;;;;;611190;235;26954;-69
2022/04/14 11:00:33;;;;;;;828.92;86.47;;;17.30;89.40;;;;;;604203;235;26578;-70
2022/04/14 11:03:09;;;;;;;1999.90;250.57;;;17.40;89.40;;;;;;602310;237;26874;-71
2022/04/14 11:05:41;;;;;;;93.57;22.23;;;17.30;89.50;;;;;;603747;237;26891;-66
2022/04/14 11:08:27;;;;;;;90.93;21.37;;;17.30;89.40;;;;;;603690;237;26647;-64
2022/04/14 11:11:11;;;;;;;79.47;21.12;;;17.60;89.30;;;;;;603810;237;26588;-65
2022/04/14 11:14:08;;;;;;;87.80;20.23;;;17.60;88.80;;;;;;601547;239;26870;-64
2022/04/14 11:16:41;;;;;;;61.37;15.40;;;17.50;89.40;;;;;;601607;238;26893;-64
2022/04/14 11:19:30;;;;;;;59.78;15.45;;;17.20;89.80;;;;;;601677;239;26889;-64
2022/04/14 11:22:02;;;;;;;46.67;14.55;;;16.80;90.20;;;;;;601458;238;26638;-64
2022/04/14 11:24:43;;;;;;;50.85;13.73;;;16.70;90.50;;;;;;601055;239;26576;-64
2022/04/14 11:27:16;;;;;;;37.88;11.43;;;16.60;90.40;;;;;;601080;235;27272;-64
2022/04/14 11:29:44;;;;;;;34.15;10.13;;;16.50;90.40;;;;;;601084;235;26661;-65
2022/04/14 11:32:13;;;;;;;31.25;10.75;;;16.30;90.80;;;;;;605044;235;26596;-65
2022/04/14 11:34:40;;;;;;;21.33;7.00;;;16.40;90.90;;;;;;604791;236;26593;-65
2022/04/14 11:37:29;;;;;;;24.25;7.53;;;16.40;90.70;;;;;;604872;236;26613;-65
2022/04/14 11:40:13;;;;;;;26.37;7.53;;;16.40;90.80;;;;;;606633;235;26661;-66
2022/04/14 11:42:40;;;;;;;23.95;6.80;;;16.40;90.70;;;;;;601948;238;26625;-65
2022/04/14 11:45:08;;;;;;;15.02;5.40;;;16.20;91.00;;;;;;603775;237;26569;-65
2022/04/14 11:47:36;;;;;;;5.75;2.95;;;16.00;91.40;;;;;;602330;237;26644;-65
2022/04/14 11:50:06;;;;;;;7.90;2.53;;;16.00;91.40;;;;;;609214;236;26665;-65
2022/04/14 11:52:32;;;;;;;6.18;2.15;;;16.20;91.30;;;;;;609747;235;26614;-65
2022/04/14 11:55:00;;;;;;;3.90;1.98;;;16.10;91.70;;;;;;602072;237;27312;-65
2022/04/14 11:57:29;;;;;;;5.57;2.37;;;15.80;92.00;;;;;;601465;237;26733;-65
2022/04/14 11:59:56;;;;;;;4.43;1.67;;;15.80;92.30;;;;;;602966;238;27155;-65
2022/04/14 12:02:21;;;;;;;2.83;2.10;;;15.80;92.40;;;;;;608753;236;26573;-65
2022/04/14 12:04:49;;;;;;;2.80;2.00;;;15.60;92.60;;;;;;603997;236;26847;-65
2022/04/14 12:07:16;;;;;;;4.60;2.00;;;15.50;93.00;;;;;;610939;235;27036;-64
2022/04/14 12:09:43;;;;;;;3.65;2.28;;;15.40;93.30;;;;;;612759;234;26606;-64
2022/04/14 12:12:12;;;;;;;3.67;1.60;;;15.20;93.60;;;;;;611042;234;26818;-65
2022/04/14 12:14:47;;;;;;;1.77;1.67;;;14.90;93.90;;;;;;605924;235;26570;-65
2022/04/14 12:17:16;;;;;;;3.28;1.60;;;14.90;93.90;;;;;;603629;236;27042;-65
2022/04/14 12:19:46;;;;;;;4.22;1.65;;;14.70;94.40;;;;;;603985;236;26631;-65
2022/04/14 12:22:14;;;;;;;3.85;1.52;;;14.60;94.40;;;;;;602030;235;26600;-66
2022/04/14 12:24:49;;;;;;;2.87;1.80;;;14.60;94.40;;;;;;603085;236;26588;-66
2022/04/14 12:27:19;;;;;;;3.05;1.83;;;14.70;94.60;;;;;;607723;235;26612;-64
2022/04/14 12:29:45;;;;;;;5.32;1.70;;;14.50;94.60;;;;;;603424;238;26585;-65
2022/04/14 12:32:13;;;;;;;4.40;1.67;;;14.40;94.90;;;;;;608648;235;26572;-64
2022/04/14 12:34:41;;;;;;;3.33;1.55;;;14.40;94.90;;;;;;603149;235;26584;-64
2022/04/14 12:37:08;;;;;;;3.87;1.45;;;14.30;95.30;;;;;;610118;235;26650;-64
2022/04/14 12:39:36;;;;;;;2.42;1.83;;;14.20;95.70;;;;;;607496;236;26991;-64
2022/04/14 12:42:03;;;;;;;5.28;1.55;;;14.10;95.90;;;;;;608301;236;26644;-64
2022/04/14 12:44:31;;;;;;;1.58;1.48;;;13.90;96.40;;;;;;603306;236;26582;-66
2022/04/14 12:46:59;;;;;;;1.98;1.55;;;13.90;96.80;;;;;;602445;238;26614;-65
2022/04/14 12:49:30;;;;;;;2.45;1.30;;;14.00;97.40;;;;;;603651;238;26599;-64
2022/04/14 12:51:57;;;;;;;1.80;1.50;;;13.90;97.30;;;;;;601522;239;26633;-64